sensor_id;sensor_type;location;lat;lon;timestamp;temperature;humidity
18456;DHT22;9357;49.900;8.208;2022-08-19T00:00:47;22.90;99.90
18456;DHT22;9357;49.900;8.208;2022-08-19T00:02:20;22.90;99.90
18456;DHT22;9357;49.900;8.208;2022-08-19T00:03:53;22.80;99.90
18456;DHT22;9357;49.900;8.208;2022-08-19T00:05:25;22.70;99.90
18456;DHT22;9357;49.900;8.208;2022-08-19T00:06:59;22.80;99.90
18456;DHT22;9357;49.900;8.208;2022-08-19T00:08:32;22.80;99.90
18456;DHT22;9357;49.900;8.208;2022-08-19T00:10:07;22.80;99.90
18456;DHT22;9357;49.900;8.208;2022-08-19T00:11:41;22.80;99.90
18456;DHT22;9357;49.900;8.208;2022-08-19T00:13:14;22.70;99.90
18456;DHT22;9357;49.900;8.208;2022-08-19T00:14:48;22.80;99.90
18456;DHT22;9357;49.900;8.208;2022-08-19T00:16:21;22.70;99.90
18456;DHT22;9357;49.900;8.208;2022-08-19T00:17:57;22.80;99.90
18456;DHT22;9357;49.900;8.208;2022-08-19T00:19:30;22.80;99.90
18456;DHT22;9357;49.900;8.208;2022-08-19T00:21:03;22.80;99.90
18456;DHT22;9357;49.900;8.208;2022-08-19T00:22:40;22.80;99.90
18456;DHT22;9357;49.900;8.208;2022-08-19T00:24:14;22.80;99.90
18456;DHT22;9357;49.900;8.208;2022-08-19T00:25:47;22.80;99.90
18456;DHT22;9357;49.900;8.208;2022-08-19T00:27:20;22.80;99.90
18456;DHT22;9357;49.900;8.208;2022-08-19T00:28:57;22.80;99.90
18456;DHT22;9357;49.900;8.208;2022-08-19T00:32:23;22.80;99.90
18456;DHT22;9357;49.900;8.208;2022-08-19T00:33:57;22.80;99.90
18456;DHT22;9357;49.900;8.208;2022-08-19T00:35:30;22.80;99.90
18456;DHT22;9357;49.900;8.208;2022-08-19T00:37:03;22.80;99.90
18456;DHT22;9357;49.900;8.208;2022-08-19T00:38:39;22.80;99.90
18456;DHT22;9357;49.900;8.208;2022-08-19T00:40:14;22.80;99.90
18456;DHT22;9357;49.900;8.208;2022-08-19T00:41:51;22.90;99.90
18456;DHT22;9357;49.900;8.208;2022-08-19T00:43:24;22.80;99.90
18456;DHT22;9357;49.900;8.208;2022-08-19T00:44:58;22.90;99.90
18456;DHT22;9357;49.900;8.208;2022-08-19T00:46:35;22.90;99.90
18456;DHT22;9357;49.900;8.208;2022-08-19T00:48:09;22.90;99.90
18456;DHT22;9357;49.900;8.208;2022-08-19T00:49:48;22.80;99.90
18456;DHT22;9357;49.900;8.208;2022-08-19T00:51:22;22.90;99.90
18456;DHT22;9357;49.900;8.208;2022-08-19T00:52:58;22.80;99.90
18456;DHT22;9357;49.900;8.208;2022-08-19T00:54:31;22.80;99.90
18456;DHT22;9357;49.900;8.208;2022-08-19T00:56:04;22.80;99.90
18456;DHT22;9357;49.900;8.208;2022-08-19T00:57:40;22.80;99.90
18456;DHT22;9357;49.900;8.208;2022-08-19T00:59:16;22.80;99.90
18456;DHT22;9357;49.900;8.208;2022-08-19T01:01:10;22.80;99.90
18456;DHT22;9357;49.900;8.208;2022-08-19T01:02:45;22.80;99.90
18456;DHT22;9357;49.900;8.208;2022-08-19T01:04:18;22.80;99.90
18456;DHT22;9357;49.900;8.208;2022-08-19T01:05:52;22.80;99.90
18456;DHT22;9357;49.900;8.208;2022-08-19T01:07:26;22.80;99.90
18456;DHT22;9357;49.900;8.208;2022-08-19T01:09:05;22.70;99.90
18456;DHT22;9357;49.900;8.208;2022-08-19T01:10:46;22.70;99.90
18456;DHT22;9357;49.900;8.208;2022-08-19T01:12:20;22.70;99.90
18456;DHT22;9357;49.900;8.208;2022-08-19T01:13:53;22.70;99.90
18456;DHT22;9357;49.900;8.208;2022-08-19T01:15:30;22.70;99.90
18456;DHT22;9357;49.900;8.208;2022-08-19T01:17:02;22.70;99.90
18456;DHT22;9357;49.900;8.208;2022-08-19T01:18:40;22.70;99.90
18456;DHT22;9357;49.900;8.208;2022-08-19T01:20:16;22.70;99.90
18456;DHT22;9357;49.900;8.208;2022-08-19T01:21:55;22.70;99.90
18456;DHT22;9357;49.900;8.208;2022-08-19T01:23:29;22.60;99.90
18456;DHT22;9357;49.900;8.208;2022-08-19T01:25:14;22.70;99.90
18456;DHT22;9357;49.900;8.208;2022-08-19T01:26:48;22.70;99.90
18456;DHT22;9357;49.900;8.208;2022-08-19T01:28:23;22.70;99.90
18456;DHT22;9357;49.900;8.208;2022-08-19T01:30:14;22.70;99.90
18456;DHT22;9357;49.900;8.208;2022-08-19T01:31:48;22.60;99.90
18456;DHT22;9357;49.900;8.208;2022-08-19T01:33:24;22.60;99.90
18456;DHT22;9357;49.900;8.208;2022-08-19T01:34:57;22.60;99.90
18456;DHT22;9357;49.900;8.208;2022-08-19T01:36:36;22.60;99.90
18456;DHT22;9357;49.900;8.208;2022-08-19T01:38:20;22.60;99.90
18456;DHT22;9357;49.900;8.208;2022-08-19T01:39:54;22.60;99.90
18456;DHT22;9357;49.900;8.208;2022-08-19T01:41:27;22.60;99.90
18456;DHT22;9357;49.900;8.208;2022-08-19T01:43:00;22.50;99.90
18456;DHT22;9357;49.900;8.208;2022-08-19T01:44:33;22.60;99.90
18456;DHT22;9357;49.900;8.208;2022-08-19T01:46:07;22.50;99.90
18456;DHT22;9357;49.900;8.208;2022-08-19T01:47:40;22.50;99.90
18456;DHT22;9357;49.900;8.208;2022-08-19T01:49:12;22.50;99.90
18456;DHT22;9357;49.900;8.208;2022-08-19T01:50:45;22.40;99.90
18456;DHT22;9357;49.900;8.208;2022-08-19T01:52:19;22.40;99.90
18456;DHT22;9357;49.900;8.208;2022-08-19T01:53:52;22.40;99.90
18456;DHT22;9357;49.900;8.208;2022-08-19T01:55:26;22.40;99.90
18456;DHT22;9357;49.900;8.208;2022-08-19T01:57:02;22.40;99.90
18456;DHT22;9357;49.900;8.208;2022-08-19T01:58:41;22.40;99.90
18456;DHT22;9357;49.900;8.208;2022-08-19T02:00:19;22.50;99.90
18456;DHT22;9357;49.900;8.208;2022-08-19T02:01:52;22.50;99.90
18456;DHT22;9357;49.900;8.208;2022-08-19T02:03:25;22.40;99.90
18456;DHT22;9357;49.900;8.208;2022-08-19T02:04:57;22.40;99.90
18456;DHT22;9357;49.900;8.208;2022-08-19T02:06:30;22.40;99.90
18456;DHT22;9357;49.900;8.208;2022-08-19T02:08:04;22.40;99.90
18456;DHT22;9357;49.900;8.208;2022-08-19T02:09:37;22.50;99.90
18456;DHT22;9357;49.900;8.208;2022-08-19T02:11:19;22.50;99.90
18456;DHT22;9357;49.900;8.208;2022-08-19T02:12:52;22.40;99.90
18456;DHT22;9357;49.900;8.208;2022-08-19T02:14:25;22.40;99.90
18456;DHT22;9357;49.900;8.208;2022-08-19T02:15:58;22.40;99.90
18456;DHT22;9357;49.900;8.208;2022-08-19T02:17:35;22.40;99.90
18456;DHT22;9357;49.900;8.208;2022-08-19T02:19:07;22.40;99.90
18456;DHT22;9357;49.900;8.208;2022-08-19T02:20:42;22.40;99.90
18456;DHT22;9357;49.900;8.208;2022-08-19T02:22:17;22.30;99.90
18456;DHT22;9357;49.900;8.208;2022-08-19T02:23:50;22.30;99.90
18456;DHT22;9357;49.900;8.208;2022-08-19T02:25:23;22.30;99.90
18456;DHT22;9357;49.900;8.208;2022-08-19T02:26:57;22.30;99.90
18456;DHT22;9357;49.900;8.208;2022-08-19T02:28:30;22.30;99.90
18456;DHT22;9357;49.900;8.208;2022-08-19T02:30:05;22.30;99.90
18456;DHT22;9357;49.900;8.208;2022-08-19T02:31:38;22.30;99.90
18456;DHT22;9357;49.900;8.208;2022-08-19T02:33:10;22.20;99.90
18456;DHT22;9357;49.900;8.208;2022-08-19T02:34:42;22.20;99.90
18456;DHT22;9357;49.900;8.208;2022-08-19T02:36:16;22.20;99.90
18456;DHT22;9357;49.900;8.208;2022-08-19T02:37:51;22.20;99.90
18456;DHT22;9357;49.900;8.208;2022-08-19T02:39:42;22.20;99.90
18456;DHT22;9357;49.900;8.208;2022-08-19T02:41:17;22.20;99.90
18456;DHT22;9357;49.900;8.208;2022-08-19T02:42:51;22.30;99.90
18456;DHT22;9357;49.900;8.208;2022-08-19T02:44:24;22.30;99.90
18456;DHT22;9357;49.900;8.208;2022-08-19T02:46:02;22.20;99.90
18456;DHT22;9357;49.900;8.208;2022-08-19T02:47:43;22.30;99.90
18456;DHT22;9357;49.900;8.208;2022-08-19T02:49:15;22.30;99.90
18456;DHT22;9357;49.900;8.208;2022-08-19T02:50:51;22.20;99.90
18456;DHT22;9357;49.900;8.208;2022-08-19T02:52:26;22.20;99.90
18456;DHT22;9357;49.900;8.208;2022-08-19T02:53:59;22.20;99.90
18456;DHT22;9357;49.900;8.208;2022-08-19T02:55:32;22.20;99.90
18456;DHT22;9357;49.900;8.208;2022-08-19T02:57:16;22.20;99.90
18456;DHT22;9357;49.900;8.208;2022-08-19T02:58:51;22.20;99.90
18456;DHT22;9357;49.900;8.208;2022-08-19T03:00:23;22.20;99.90
18456;DHT22;9357;49.900;8.208;2022-08-19T03:01:55;22.20;99.90
18456;DHT22;9357;49.900;8.208;2022-08-19T03:03:28;22.20;99.90
18456;DHT22;9357;49.900;8.208;2022-08-19T03:05:02;22.20;99.90
18456;DHT22;9357;49.900;8.208;2022-08-19T03:06:36;22.20;99.90
18456;DHT22;9357;49.900;8.208;2022-08-19T03:08:11;22.20;99.90
18456;DHT22;9357;49.900;8.208;2022-08-19T03:09:44;22.20;99.90
18456;DHT22;9357;49.900;8.208;2022-08-19T03:11:20;22.20;99.90
18456;DHT22;9357;49.900;8.208;2022-08-19T03:12:53;22.20;99.90
18456;DHT22;9357;49.900;8.208;2022-08-19T03:14:26;22.20;99.90
18456;DHT22;9357;49.900;8.208;2022-08-19T03:15:59;22.10;99.90
18456;DHT22;9357;49.900;8.208;2022-08-19T03:17:31;22.10;99.90
18456;DHT22;9357;49.900;8.208;2022-08-19T03:19:04;22.10;99.90
18456;DHT22;9357;49.900;8.208;2022-08-19T03:20:40;22.10;99.90
18456;DHT22;9357;49.900;8.208;2022-08-19T03:22:14;22.10;99.90
18456;DHT22;9357;49.900;8.208;2022-08-19T03:23:47;22.10;99.90
18456;DHT22;9357;49.900;8.208;2022-08-19T03:25:20;22.10;99.90
18456;DHT22;9357;49.900;8.208;2022-08-19T03:26:54;22.10;99.90
18456;DHT22;9357;49.900;8.208;2022-08-19T03:28:28;22.10;99.90
18456;DHT22;9357;49.900;8.208;2022-08-19T03:30:03;22.00;99.90
18456;DHT22;9357;49.900;8.208;2022-08-19T03:31:43;22.00;99.90
18456;DHT22;9357;49.900;8.208;2022-08-19T03:33:24;22.00;99.90
18456;DHT22;9357;49.900;8.208;2022-08-19T03:34:59;22.00;99.90
18456;DHT22;9357;49.900;8.208;2022-08-19T03:36:32;22.00;99.90
18456;DHT22;9357;49.900;8.208;2022-08-19T03:38:06;22.00;99.90
18456;DHT22;9357;49.900;8.208;2022-08-19T03:39:38;21.90;99.90
18456;DHT22;9357;49.900;8.208;2022-08-19T03:41:13;22.00;99.90
18456;DHT22;9357;49.900;8.208;2022-08-19T03:42:46;21.90;99.90
18456;DHT22;9357;49.900;8.208;2022-08-19T03:44:22;21.90;99.90
18456;DHT22;9357;49.900;8.208;2022-08-19T03:46:02;21.90;99.90
18456;DHT22;9357;49.900;8.208;2022-08-19T03:47:35;22.00;99.90
18456;DHT22;9357;49.900;8.208;2022-08-19T03:49:09;21.90;99.90
18456;DHT22;9357;49.900;8.208;2022-08-19T03:50:44;21.90;99.90
18456;DHT22;9357;49.900;8.208;2022-08-19T03:52:17;21.90;99.90
18456;DHT22;9357;49.900;8.208;2022-08-19T03:53:51;21.90;99.90
18456;DHT22;9357;49.900;8.208;2022-08-19T03:55:24;21.90;99.90
18456;DHT22;9357;49.900;8.208;2022-08-19T03:56:57;21.90;99.90
18456;DHT22;9357;49.900;8.208;2022-08-19T03:58:30;21.90;99.90
18456;DHT22;9357;49.900;8.208;2022-08-19T04:00:04;21.80;99.90
18456;DHT22;9357;49.900;8.208;2022-08-19T04:01:46;21.80;99.90
18456;DHT22;9357;49.900;8.208;2022-08-19T04:03:18;21.80;99.90
18456;DHT22;9357;49.900;8.208;2022-08-19T04:04:53;21.80;99.90
18456;DHT22;9357;49.900;8.208;2022-08-19T04:06:28;21.70;99.90
18456;DHT22;9357;49.900;8.208;2022-08-19T04:08:03;21.70;99.90
18456;DHT22;9357;49.900;8.208;2022-08-19T04:09:42;21.70;99.90
18456;DHT22;9357;49.900;8.208;2022-08-19T04:11:17;21.70;99.90
18456;DHT22;9357;49.900;8.208;2022-08-19T04:12:52;21.70;99.90
18456;DHT22;9357;49.900;8.208;2022-08-19T04:14:27;21.80;99.90
18456;DHT22;9357;49.900;8.208;2022-08-19T04:16:01;21.70;99.90
18456;DHT22;9357;49.900;8.208;2022-08-19T04:17:36;21.70;99.90
18456;DHT22;9357;49.900;8.208;2022-08-19T04:19:09;21.70;99.90
18456;DHT22;9357;49.900;8.208;2022-08-19T04:20:42;21.70;99.90
18456;DHT22;9357;49.900;8.208;2022-08-19T04:22:16;21.70;99.90
18456;DHT22;9357;49.900;8.208;2022-08-19T04:23:50;21.70;99.90
18456;DHT22;9357;49.900;8.208;2022-08-19T04:25:26;21.60;99.90
18456;DHT22;9357;49.900;8.208;2022-08-19T04:26:59;21.70;99.90
18456;DHT22;9357;49.900;8.208;2022-08-19T04:28:33;21.60;99.90
18456;DHT22;9357;49.900;8.208;2022-08-19T04:30:08;21.60;99.90
18456;DHT22;9357;49.900;8.208;2022-08-19T04:31:43;21.70;99.90
18456;DHT22;9357;49.900;8.208;2022-08-19T04:33:22;21.60;99.90
18456;DHT22;9357;49.900;8.208;2022-08-19T04:34:59;21.60;99.90
18456;DHT22;9357;49.900;8.208;2022-08-19T04:36:49;21.60;99.90
18456;DHT22;9357;49.900;8.208;2022-08-19T04:38:23;21.60;99.90
18456;DHT22;9357;49.900;8.208;2022-08-19T04:39:56;21.60;99.90
18456;DHT22;9357;49.900;8.208;2022-08-19T04:41:46;21.60;99.90
18456;DHT22;9357;49.900;8.208;2022-08-19T04:43:38;21.60;99.90
18456;DHT22;9357;49.900;8.208;2022-08-19T04:45:13;21.60;99.90
18456;DHT22;9357;49.900;8.208;2022-08-19T04:46:49;21.60;99.90
18456;DHT22;9357;49.900;8.208;2022-08-19T04:48:24;21.50;99.90
18456;DHT22;9357;49.900;8.208;2022-08-19T04:49:58;21.50;99.90
18456;DHT22;9357;49.900;8.208;2022-08-19T04:51:32;21.50;99.90
18456;DHT22;9357;49.900;8.208;2022-08-19T04:53:05;21.50;99.90
18456;DHT22;9357;49.900;8.208;2022-08-19T04:54:38;21.50;99.90
18456;DHT22;9357;49.900;8.208;2022-08-19T04:56:13;21.40;99.90
18456;DHT22;9357;49.900;8.208;2022-08-19T04:57:46;21.40;99.90
18456;DHT22;9357;49.900;8.208;2022-08-19T04:59:20;21.40;99.90
18456;DHT22;9357;49.900;8.208;2022-08-19T05:00:53;21.40;99.90
18456;DHT22;9357;49.900;8.208;2022-08-19T05:02:26;21.30;99.90
18456;DHT22;9357;49.900;8.208;2022-08-19T05:04:04;21.30;99.90
18456;DHT22;9357;49.900;8.208;2022-08-19T05:05:39;21.30;99.90
18456;DHT22;9357;49.900;8.208;2022-08-19T05:07:16;21.30;99.90
18456;DHT22;9357;49.900;8.208;2022-08-19T05:08:49;21.30;99.90
18456;DHT22;9357;49.900;8.208;2022-08-19T05:10:21;21.30;99.90
18456;DHT22;9357;49.900;8.208;2022-08-19T05:11:54;21.30;99.90
18456;DHT22;9357;49.900;8.208;2022-08-19T05:13:27;21.30;99.90
18456;DHT22;9357;49.900;8.208;2022-08-19T05:15:00;21.30;99.90
18456;DHT22;9357;49.900;8.208;2022-08-19T05:16:33;21.30;99.90
18456;DHT22;9357;49.900;8.208;2022-08-19T05:18:06;21.30;99.90
18456;DHT22;9357;49.900;8.208;2022-08-19T05:19:58;21.30;99.90
18456;DHT22;9357;49.900;8.208;2022-08-19T05:21:48;21.30;99.90
18456;DHT22;9357;49.900;8.208;2022-08-19T05:23:38;21.30;99.90
18456;DHT22;9357;49.900;8.208;2022-08-19T05:25:15;21.30;99.90
18456;DHT22;9357;49.900;8.208;2022-08-19T05:26:51;21.30;99.90
18456;DHT22;9357;49.900;8.208;2022-08-19T05:28:24;21.40;99.90
18456;DHT22;9357;49.900;8.208;2022-08-19T05:29:58;21.40;99.90
18456;DHT22;9357;49.900;8.208;2022-08-19T05:31:31;21.40;99.90
18456;DHT22;9357;49.900;8.208;2022-08-19T05:33:04;21.50;99.90
18456;DHT22;9357;49.900;8.208;2022-08-19T05:34:37;21.50;99.90
18456;DHT22;9357;49.900;8.208;2022-08-19T05:36:12;21.60;99.90
18456;DHT22;9357;49.900;8.208;2022-08-19T05:37:45;21.60;99.90
18456;DHT22;9357;49.900;8.208;2022-08-19T05:39:20;21.60;99.90
18456;DHT22;9357;49.900;8.208;2022-08-19T05:40:52;21.70;99.90
18456;DHT22;9357;49.900;8.208;2022-08-19T05:42:25;21.70;99.90
18456;DHT22;9357;49.900;8.208;2022-08-19T05:44:01;21.70;99.90
18456;DHT22;9357;49.900;8.208;2022-08-19T05:45:41;21.70;99.90
18456;DHT22;9357;49.900;8.208;2022-08-19T05:47:14;21.70;99.90
18456;DHT22;9357;49.900;8.208;2022-08-19T05:48:47;21.70;99.90
18456;DHT22;9357;49.900;8.208;2022-08-19T05:50:25;21.70;99.90
18456;DHT22;9357;49.900;8.208;2022-08-19T05:52:01;21.70;99.90
18456;DHT22;9357;49.900;8.208;2022-08-19T05:53:35;21.80;99.90
18456;DHT22;9357;49.900;8.208;2022-08-19T05:55:09;21.80;99.90
18456;DHT22;9357;49.900;8.208;2022-08-19T05:56:43;21.80;99.90
18456;DHT22;9357;49.900;8.208;2022-08-19T05:58:14;21.80;99.90
18456;DHT22;9357;49.900;8.208;2022-08-19T05:59:53;21.80;99.90
18456;DHT22;9357;49.900;8.208;2022-08-19T06:01:29;21.80;99.90
18456;DHT22;9357;49.900;8.208;2022-08-19T06:03:02;21.90;99.90
18456;DHT22;9357;49.900;8.208;2022-08-19T06:04:43;21.80;99.90
18456;DHT22;9357;49.900;8.208;2022-08-19T06:06:16;21.90;99.90
18456;DHT22;9357;49.900;8.208;2022-08-19T06:07:50;21.90;99.90
18456;DHT22;9357;49.900;8.208;2022-08-19T06:09:23;21.90;99.90
18456;DHT22;9357;49.900;8.208;2022-08-19T06:10:56;22.00;99.90
18456;DHT22;9357;49.900;8.208;2022-08-19T06:12:30;22.00;99.90
18456;DHT22;9357;49.900;8.208;2022-08-19T06:14:05;22.00;99.90
18456;DHT22;9357;49.900;8.208;2022-08-19T06:15:47;22.00;99.90
18456;DHT22;9357;49.900;8.208;2022-08-19T06:17:20;22.00;99.90
18456;DHT22;9357;49.900;8.208;2022-08-19T06:19:00;22.00;99.90
18456;DHT22;9357;49.900;8.208;2022-08-19T06:20:34;22.10;99.90
18456;DHT22;9357;49.900;8.208;2022-08-19T06:22:27;22.10;99.90
18456;DHT22;9357;49.900;8.208;2022-08-19T06:24:02;22.10;99.90
18456;DHT22;9357;49.900;8.208;2022-08-19T06:25:35;22.10;99.90
18456;DHT22;9357;49.900;8.208;2022-08-19T06:27:09;22.10;99.90
18456;DHT22;9357;49.900;8.208;2022-08-19T06:28:42;22.10;99.90
18456;DHT22;9357;49.900;8.208;2022-08-19T06:30:17;22.10;99.90
18456;DHT22;9357;49.900;8.208;2022-08-19T06:31:53;22.10;99.90
18456;DHT22;9357;49.900;8.208;2022-08-19T06:33:27;22.20;99.90
18456;DHT22;9357;49.900;8.208;2022-08-19T06:35:01;22.20;99.90
18456;DHT22;9357;49.900;8.208;2022-08-19T06:36:35;22.20;99.90
18456;DHT22;9357;49.900;8.208;2022-08-19T06:38:08;22.20;99.90
18456;DHT22;9357;49.900;8.208;2022-08-19T06:39:44;22.30;99.90
18456;DHT22;9357;49.900;8.208;2022-08-19T06:41:16;22.30;99.90
18456;DHT22;9357;49.900;8.208;2022-08-19T06:42:48;22.40;99.90
18456;DHT22;9357;49.900;8.208;2022-08-19T06:44:29;22.30;99.90
18456;DHT22;9357;49.900;8.208;2022-08-19T06:46:02;22.40;99.90
18456;DHT22;9357;49.900;8.208;2022-08-19T06:47:36;22.40;99.90
18456;DHT22;9357;49.900;8.208;2022-08-19T06:49:09;22.40;99.90
18456;DHT22;9357;49.900;8.208;2022-08-19T06:50:45;22.50;99.90
18456;DHT22;9357;49.900;8.208;2022-08-19T06:52:20;22.50;99.90
18456;DHT22;9357;49.900;8.208;2022-08-19T06:53:56;22.50;99.90
18456;DHT22;9357;49.900;8.208;2022-08-19T06:55:30;22.60;99.90
18456;DHT22;9357;49.900;8.208;2022-08-19T06:57:04;22.70;99.90
18456;DHT22;9357;49.900;8.208;2022-08-19T06:58:38;22.70;99.90
18456;DHT22;9357;49.900;8.208;2022-08-19T07:00:11;22.70;99.90
18456;DHT22;9357;49.900;8.208;2022-08-19T07:01:47;22.80;99.90
18456;DHT22;9357;49.900;8.208;2022-08-19T07:03:20;22.80;99.90
18456;DHT22;9357;49.900;8.208;2022-08-19T07:04:53;22.90;99.90
18456;DHT22;9357;49.900;8.208;2022-08-19T07:06:28;22.90;99.90
18456;DHT22;9357;49.900;8.208;2022-08-19T07:08:15;23.00;99.90
18456;DHT22;9357;49.900;8.208;2022-08-19T07:09:50;23.10;99.90
18456;DHT22;9357;49.900;8.208;2022-08-19T07:11:34;23.20;99.90
18456;DHT22;9357;49.900;8.208;2022-08-19T07:13:07;23.30;99.90
18456;DHT22;9357;49.900;8.208;2022-08-19T07:14:39;23.40;99.90
18456;DHT22;9357;49.900;8.208;2022-08-19T07:16:15;23.40;99.90
18456;DHT22;9357;49.900;8.208;2022-08-19T07:17:52;23.50;99.90
18456;DHT22;9357;49.900;8.208;2022-08-19T07:19:26;23.60;99.90
18456;DHT22;9357;49.900;8.208;2022-08-19T07:21:04;23.80;99.90
18456;DHT22;9357;49.900;8.208;2022-08-19T07:22:40;24.00;99.90
18456;DHT22;9357;49.900;8.208;2022-08-19T07:24:13;24.20;99.90
18456;DHT22;9357;49.900;8.208;2022-08-19T07:25:46;24.40;99.90
18456;DHT22;9357;49.900;8.208;2022-08-19T07:27:25;24.60;99.90
18456;DHT22;9357;49.900;8.208;2022-08-19T07:28:58;24.80;99.90
18456;DHT22;9357;49.900;8.208;2022-08-19T07:30:31;25.00;99.90
18456;DHT22;9357;49.900;8.208;2022-08-19T07:32:05;25.20;99.90
18456;DHT22;9357;49.900;8.208;2022-08-19T07:33:44;25.30;99.90
18456;DHT22;9357;49.900;8.208;2022-08-19T07:35:18;25.50;99.90
18456;DHT22;9357;49.900;8.208;2022-08-19T07:36:52;25.60;99.90
18456;DHT22;9357;49.900;8.208;2022-08-19T07:38:25;25.80;99.90
18456;DHT22;9357;49.900;8.208;2022-08-19T07:39:58;26.00;99.90
18456;DHT22;9357;49.900;8.208;2022-08-19T07:41:31;26.10;99.90
18456;DHT22;9357;49.900;8.208;2022-08-19T07:43:05;26.30;99.90
18456;DHT22;9357;49.900;8.208;2022-08-19T07:44:44;26.50;99.90
18456;DHT22;9357;49.900;8.208;2022-08-19T07:46:21;26.70;99.90
18456;DHT22;9357;49.900;8.208;2022-08-19T07:47:54;26.80;99.90
18456;DHT22;9357;49.900;8.208;2022-08-19T07:49:27;27.00;99.90
18456;DHT22;9357;49.900;8.208;2022-08-19T07:51:03;27.10;99.90
18456;DHT22;9357;49.900;8.208;2022-08-19T07:52:37;27.30;99.90
18456;DHT22;9357;49.900;8.208;2022-08-19T07:54:11;27.50;99.90
18456;DHT22;9357;49.900;8.208;2022-08-19T07:55:44;27.60;99.90
18456;DHT22;9357;49.900;8.208;2022-08-19T07:57:17;27.70;99.90
18456;DHT22;9357;49.900;8.208;2022-08-19T07:58:52;27.80;99.90
18456;DHT22;9357;49.900;8.208;2022-08-19T08:00:30;27.90;99.90
18456;DHT22;9357;49.900;8.208;2022-08-19T08:02:04;28.00;99.90
18456;DHT22;9357;49.900;8.208;2022-08-19T08:03:38;28.00;99.90
18456;DHT22;9357;49.900;8.208;2022-08-19T08:05:42;28.10;99.90
18456;DHT22;9357;49.900;8.208;2022-08-19T08:07:33;28.20;99.90
18456;DHT22;9357;49.900;8.208;2022-08-19T08:09:28;28.20;99.90
18456;DHT22;9357;49.900;8.208;2022-08-19T08:11:01;28.30;99.90
18456;DHT22;9357;49.900;8.208;2022-08-19T08:12:40;28.20;99.90
18456;DHT22;9357;49.900;8.208;2022-08-19T08:14:15;28.20;99.90
18456;DHT22;9357;49.900;8.208;2022-08-19T08:16:05;28.20;99.90
18456;DHT22;9357;49.900;8.208;2022-08-19T08:17:45;28.30;99.90
18456;DHT22;9357;49.900;8.208;2022-08-19T08:19:24;28.30;99.90
18456;DHT22;9357;49.900;8.208;2022-08-19T08:20:57;28.40;99.90
18456;DHT22;9357;49.900;8.208;2022-08-19T08:22:30;28.40;99.90
18456;DHT22;9357;49.900;8.208;2022-08-19T08:24:21;28.40;99.90
18456;DHT22;9357;49.900;8.208;2022-08-19T08:25:59;28.40;99.90
18456;DHT22;9357;49.900;8.208;2022-08-19T08:27:35;28.40;99.90
18456;DHT22;9357;49.900;8.208;2022-08-19T08:29:10;28.30;99.90
18456;DHT22;9357;49.900;8.208;2022-08-19T08:30:47;28.20;99.90
18456;DHT22;9357;49.900;8.208;2022-08-19T08:32:21;28.20;99.90
18456;DHT22;9357;49.900;8.208;2022-08-19T08:33:55;28.10;99.90
18456;DHT22;9357;49.900;8.208;2022-08-19T08:35:28;28.00;99.90
18456;DHT22;9357;49.900;8.208;2022-08-19T08:37:01;28.00;99.90
18456;DHT22;9357;49.900;8.208;2022-08-19T08:38:35;27.90;99.90
18456;DHT22;9357;49.900;8.208;2022-08-19T08:40:18;27.90;99.90
18456;DHT22;9357;49.900;8.208;2022-08-19T08:41:59;27.90;99.90
18456;DHT22;9357;49.900;8.208;2022-08-19T08:43:41;27.80;99.90
18456;DHT22;9357;49.900;8.208;2022-08-19T08:45:18;27.70;99.90
18456;DHT22;9357;49.900;8.208;2022-08-19T08:46:55;27.60;99.90
18456;DHT22;9357;49.900;8.208;2022-08-19T08:48:37;27.60;99.90
18456;DHT22;9357;49.900;8.208;2022-08-19T08:50:15;27.50;99.90
18456;DHT22;9357;49.900;8.208;2022-08-19T08:51:54;27.50;99.90
18456;DHT22;9357;49.900;8.208;2022-08-19T08:53:31;27.40;99.90
18456;DHT22;9357;49.900;8.208;2022-08-19T08:55:14;27.50;99.90
18456;DHT22;9357;49.900;8.208;2022-08-19T08:56:53;27.50;99.90
18456;DHT22;9357;49.900;8.208;2022-08-19T08:58:31;27.50;99.90
18456;DHT22;9357;49.900;8.208;2022-08-19T09:00:07;27.50;99.90
18456;DHT22;9357;49.900;8.208;2022-08-19T09:01:46;27.60;99.90
18456;DHT22;9357;49.900;8.208;2022-08-19T09:03:23;27.70;99.90
18456;DHT22;9357;49.900;8.208;2022-08-19T09:04:57;27.80;99.90
18456;DHT22;9357;49.900;8.208;2022-08-19T09:06:38;27.90;99.90
18456;DHT22;9357;49.900;8.208;2022-08-19T09:08:18;28.10;99.90
18456;DHT22;9357;49.900;8.208;2022-08-19T09:10:04;28.30;99.90
18456;DHT22;9357;49.900;8.208;2022-08-19T09:11:50;28.50;99.90
18456;DHT22;9357;49.900;8.208;2022-08-19T09:13:30;28.70;99.90
18456;DHT22;9357;49.900;8.208;2022-08-19T09:15:10;28.90;99.90
18456;DHT22;9357;49.900;8.208;2022-08-19T09:16:43;29.20;99.90
18456;DHT22;9357;49.900;8.208;2022-08-19T09:18:17;29.30;99.90
18456;DHT22;9357;49.900;8.208;2022-08-19T09:19:53;29.40;99.90
18456;DHT22;9357;49.900;8.208;2022-08-19T09:21:26;29.50;99.90
18456;DHT22;9357;49.900;8.208;2022-08-19T09:23:05;29.70;99.90
18456;DHT22;9357;49.900;8.208;2022-08-19T09:24:37;29.80;99.90
18456;DHT22;9357;49.900;8.208;2022-08-19T09:26:13;30.00;99.90
18456;DHT22;9357;49.900;8.208;2022-08-19T09:27:48;30.10;99.90
18456;DHT22;9357;49.900;8.208;2022-08-19T09:29:21;30.30;99.90
18456;DHT22;9357;49.900;8.208;2022-08-19T09:30:54;30.30;99.90
18456;DHT22;9357;49.900;8.208;2022-08-19T09:32:27;30.30;99.90
18456;DHT22;9357;49.900;8.208;2022-08-19T09:33:59;30.30;99.90
18456;DHT22;9357;49.900;8.208;2022-08-19T09:35:37;30.20;99.90
18456;DHT22;9357;49.900;8.208;2022-08-19T09:37:23;30.10;99.90
18456;DHT22;9357;49.900;8.208;2022-08-19T09:38:56;30.10;99.90
18456;DHT22;9357;49.900;8.208;2022-08-19T09:40:30;30.20;99.90
18456;DHT22;9357;49.900;8.208;2022-08-19T09:42:09;30.20;99.90
18456;DHT22;9357;49.900;8.208;2022-08-19T09:44:00;30.20;99.90
18456;DHT22;9357;49.900;8.208;2022-08-19T09:45:33;30.10;99.90
18456;DHT22;9357;49.900;8.208;2022-08-19T09:47:07;30.20;99.90
18456;DHT22;9357;49.900;8.208;2022-08-19T09:48:40;30.20;99.90
18456;DHT22;9357;49.900;8.208;2022-08-19T09:50:13;30.20;99.90
18456;DHT22;9357;49.900;8.208;2022-08-19T09:51:51;30.20;99.90
18456;DHT22;9357;49.900;8.208;2022-08-19T09:53:27;30.30;99.90
18456;DHT22;9357;49.900;8.208;2022-08-19T09:55:03;30.40;99.90
18456;DHT22;9357;49.900;8.208;2022-08-19T09:56:38;30.40;99.90
18456;DHT22;9357;49.900;8.208;2022-08-19T09:58:13;30.40;99.90
18456;DHT22;9357;49.900;8.208;2022-08-19T09:59:45;30.50;99.90
18456;DHT22;9357;49.900;8.208;2022-08-19T10:01:22;30.60;99.90
18456;DHT22;9357;49.900;8.208;2022-08-19T10:02:55;30.60;99.90
18456;DHT22;9357;49.900;8.208;2022-08-19T10:04:27;30.50;99.90
18456;DHT22;9357;49.900;8.208;2022-08-19T10:06:15;30.60;99.90
18456;DHT22;9357;49.900;8.208;2022-08-19T10:07:49;30.50;99.90
18456;DHT22;9357;49.900;8.208;2022-08-19T10:09:22;30.40;99.90
18456;DHT22;9357;49.900;8.208;2022-08-19T10:11:05;30.40;99.90
18456;DHT22;9357;49.900;8.208;2022-08-19T10:12:58;30.40;99.90
18456;DHT22;9357;49.900;8.208;2022-08-19T10:14:31;30.40;99.90
18456;DHT22;9357;49.900;8.208;2022-08-19T10:16:06;30.40;99.90